Time;durP1;ratioP1;P1;durP2;ratioP2;P2;SDS_P1;SDS_P2;PMS_P1;PMS_P2;Temp;Humidity;BMP_temperature;BMP_pressure;BME280_temperature;BME280_humidity;BME280_pressure;Samples;Min_cycle;Max_cycle;Signal;HPM_P1;HPM_P2
2021/04/20 00:01:42;;;;;;;68.30;36.30;;;5.80;99.90;;;;;;5033770;28;20022;-72
2021/04/20 00:04:07;;;;;;;63.83;34.00;;;5.80;99.90;;;;;;5033368;28;20026;-72
2021/04/20 00:06:33;;;;;;;60.97;33.78;;;5.70;99.90;;;;;;5033769;28;20077;-72
2021/04/20 00:08:59;;;;;;;73.22;37.55;;;5.60;99.90;;;;;;5033687;28;20097;-72
2021/04/20 00:11:25;;;;;;;68.25;37.03;;;5.60;99.90;;;;;;5016004;28;20081;-72
2021/04/20 00:13:51;;;;;;;67.50;35.25;;;5.50;99.90;;;;;;5033151;28;20025;-72
2021/04/20 00:16:16;;;;;;;72.25;37.10;;;5.40;99.90;;;;;;5032999;28;20031;-72
2021/04/20 00:18:42;;;;;;;71.15;37.42;;;5.40;99.90;;;;;;5015752;28;20083;-72
2021/04/20 00:21:07;;;;;;;72.85;38.15;;;5.40;99.90;;;;;;5015735;28;20030;-72
2021/04/20 00:23:34;;;;;;;70.75;36.72;;;5.30;99.90;;;;;;5032783;28;20029;-72
2021/04/20 00:26:00;;;;;;;76.60;37.22;;;5.20;99.90;;;;;;5033105;28;20105;-72
2021/04/20 00:28:27;;;;;;;79.53;40.63;;;5.20;99.90;;;;;;5033454;28;20471;-72
2021/04/20 00:30:53;;;;;;;64.65;35.45;;;5.20;99.90;;;;;;5032321;28;20029;-72
2021/04/20 00:33:20;;;;;;;75.03;37.85;;;5.00;99.90;;;;;;5032806;28;20037;-72
2021/04/20 00:35:46;;;;;;;61.00;34.78;;;5.00;99.90;;;;;;5033315;28;20494;-71
2021/04/20 00:38:12;;;;;;;66.90;35.65;;;5.00;99.90;;;;;;5033217;28;20029;-72
2021/04/20 00:40:38;;;;;;;73.38;36.30;;;4.90;99.90;;;;;;5033173;28;20491;-72
2021/04/20 00:43:04;;;;;;;69.25;34.55;;;4.90;99.90;;;;;;5032554;28;20037;-72
2021/04/20 00:45:32;;;;;;;60.95;31.65;;;4.80;99.90;;;;;;5032781;28;20083;-72
2021/04/20 00:47:59;;;;;;;66.25;34.92;;;4.80;99.90;;;;;;5033140;28;20048;-72
2021/04/20 00:50:30;;;;;;;63.85;34.35;;;4.70;99.90;;;;;;5033118;28;20042;-72
2021/04/20 00:52:56;;;;;;;69.85;36.15;;;4.60;99.90;;;;;;5032585;28;20487;-72
2021/04/20 00:55:22;;;;;;;63.75;33.80;;;4.60;99.90;;;;;;5032776;28;20502;-73
2021/04/20 00:57:48;;;;;;;69.60;34.55;;;4.60;99.90;;;;;;5033025;28;20044;-72
2021/04/20 01:00:16;;;;;;;62.30;33.80;;;4.60;99.90;;;;;;5032575;28;20030;-72
2021/04/20 01:02:42;;;;;;;69.35;35.53;;;4.50;99.90;;;;;;5032329;28;20206;-72
2021/04/20 01:05:12;;;;;;;83.05;40.28;;;4.40;99.90;;;;;;5032736;28;20029;-72
2021/04/20 01:07:39;;;;;;;79.47;39.22;;;4.50;99.90;;;;;;5032424;28;20044;-72
2021/04/20 01:10:07;;;;;;;68.60;34.75;;;4.40;99.90;;;;;;5032894;28;20075;-71
2021/04/20 01:12:36;;;;;;;64.38;34.65;;;4.30;99.90;;;;;;5032438;28;20483;-70
2021/04/20 01:15:02;;;;;;;71.85;35.65;;;4.20;99.90;;;;;;5031612;28;20396;-71
2021/04/20 01:17:28;;;;;;;79.28;38.67;;;4.10;99.90;;;;;;5013862;28;20416;-71
2021/04/20 01:19:57;;;;;;;73.57;37.22;;;4.20;99.90;;;;;;5012746;28;20022;-71
2021/04/20 01:22:24;;;;;;;70.47;34.00;;;4.10;99.90;;;;;;5012406;28;20436;-71
2021/04/20 01:24:51;;;;;;;74.10;34.33;;;4.10;99.90;;;;;;5011702;28;20034;-72
2021/04/20 01:27:17;;;;;;;68.13;35.42;;;4.10;99.90;;;;;;5012414;28;20109;-72
2021/04/20 01:29:43;;;;;;;70.82;34.78;;;4.00;99.90;;;;;;5012525;28;20093;-72
2021/04/20 01:32:08;;;;;;;66.55;35.97;;;3.80;99.90;;;;;;5012686;28;20029;-72
2021/04/20 01:34:34;;;;;;;69.95;35.80;;;3.80;99.90;;;;;;5020780;28;20391;-71
2021/04/20 01:37:00;;;;;;;68.35;33.30;;;3.80;99.90;;;;;;5013543;28;20029;-72
2021/04/20 01:39:25;;;;;;;72.55;36.88;;;3.80;99.90;;;;;;5031954;28;20080;-73
2021/04/20 01:41:51;;;;;;;90.75;39.15;;;3.80;99.90;;;;;;5032179;28;20072;-72
2021/04/20 01:44:17;;;;;;;74.88;37.53;;;3.80;99.90;;;;;;5031829;28;20106;-72
2021/04/20 01:46:43;;;;;;;72.15;35.75;;;3.80;99.90;;;;;;5032018;28;20017;-72
2021/04/20 01:49:09;;;;;;;77.03;35.10;;;3.80;99.90;;;;;;5030577;28;20017;-72
2021/04/20 01:51:35;;;;;;;80.93;35.40;;;3.70;99.90;;;;;;5031745;28;20048;-71
2021/04/20 01:54:01;;;;;;;76.13;39.13;;;3.70;99.90;;;;;;5030701;28;20494;-72
2021/04/20 01:56:29;;;;;;;82.38;39.13;;;3.70;99.90;;;;;;5031494;28;20033;-72
2021/04/20 01:58:55;;;;;;;75.72;37.70;;;3.80;99.90;;;;;;5029857;23;20034;-70
2021/04/20 02:01:25;;;;;;;88.85;39.88;;;3.60;99.90;;;;;;5043332;28;20032;-71
2021/04/20 02:03:51;;;;;;;91.40;40.75;;;3.60;99.90;;;;;;5041034;28;20218;-69
2021/04/20 02:06:19;;;;;;;94.63;42.20;;;3.60;99.90;;;;;;5040413;28;20022;-70
2021/04/20 02:08:47;;;;;;;91.35;41.10;;;3.60;99.90;;;;;;5039831;28;20021;-70
2021/04/20 02:11:17;;;;;;;97.40;43.58;;;3.60;99.90;;;;;;5039748;28;20028;-70
2021/04/20 02:13:43;;;;;;;94.97;42.60;;;3.60;99.90;;;;;;5037989;28;20025;-70
2021/04/20 02:16:09;;;;;;;93.55;44.00;;;3.60;99.90;;;;;;5039100;28;20083;-70
2021/04/20 02:18:47;;;;;;;100.72;46.28;;;3.50;99.90;;;;;;5037734;28;20077;-70
2021/04/20 02:21:13;;;;;;;110.57;45.90;;;3.50;99.90;;;;;;5038436;28;20106;-70
2021/04/20 02:23:42;;;;;;;111.30;46.50;;;3.50;99.90;;;;;;5038442;28;20025;-69
2021/04/20 02:26:14;;;;;;;107.43;46.65;;;3.60;99.90;;;;;;5038644;28;20498;-71
2021/04/20 02:28:40;;;;;;;103.60;46.20;;;3.70;99.90;;;;;;5038971;28;20399;-69
2021/04/20 02:31:08;;;;;;;95.20;45.17;;;3.50;99.90;;;;;;5038489;28;20026;-69
2021/04/20 02:33:34;;;;;;;98.45;44.80;;;3.60;99.90;;;;;;5038289;28;20394;-71
2021/04/20 02:36:01;;;;;;;89.07;43.03;;;3.60;99.90;;;;;;5038534;28;20078;-69
2021/04/20 02:38:28;;;;;;;87.32;42.47;;;3.60;99.90;;;;;;5038147;28;20025;-69
2021/04/20 02:40:56;;;;;;;86.13;43.40;;;3.70;99.90;;;;;;5039053;28;20160;-70
2021/04/20 02:43:23;;;;;;;90.50;41.15;;;3.70;99.90;;;;;;5037528;28;20022;-70
2021/04/20 02:45:51;;;;;;;91.45;41.67;;;3.60;99.90;;;;;;5039228;28;20029;-70
2021/04/20 02:48:17;;;;;;;88.75;42.15;;;3.60;99.90;;;;;;5040988;28;20079;-69
2021/04/20 02:50:44;;;;;;;87.57;42.10;;;3.70;99.90;;;;;;5043880;28;20022;-69
2021/04/20 02:53:10;;;;;;;110.30;44.72;;;3.60;99.90;;;;;;5036678;28;20026;-69
2021/04/20 02:55:36;;;;;;;106.53;45.90;;;3.60;99.90;;;;;;5036537;28;20476;-70
2021/04/20 02:58:04;;;;;;;134.55;51.15;;;3.80;99.90;;;;;;5039026;28;20411;-68
2021/04/20 03:00:31;;;;;;;103.90;48.03;;;3.90;99.90;;;;;;5059326;28;20036;-70
2021/04/20 03:02:58;;;;;;;97.63;45.92;;;3.90;99.90;;;;;;5055281;28;20060;-68
2021/04/20 03:05:27;;;;;;;104.07;45.80;;;3.70;99.90;;;;;;5055525;28;20486;-71
2021/04/20 03:07:53;;;;;;;104.30;45.08;;;3.70;99.90;;;;;;5055490;28;20025;-70
2021/04/20 03:10:20;;;;;;;118.13;41.80;;;3.70;99.90;;;;;;5055475;28;20020;-70
2021/04/20 03:12:46;;;;;;;83.97;41.70;;;3.70;99.90;;;;;;5053789;28;20029;-70
2021/04/20 03:15:16;;;;;;;86.93;43.35;;;3.70;99.90;;;;;;5055104;28;20029;-70
2021/04/20 03:17:45;;;;;;;90.25;43.35;;;3.70;99.90;;;;;;5055245;28;20041;-70
2021/04/20 03:20:12;;;;;;;80.40;42.70;;;3.80;99.90;;;;;;5053554;28;20028;-69
2021/04/20 03:22:42;;;;;;;79.63;41.35;;;3.70;99.90;;;;;;5053458;28;20112;-69
2021/04/20 03:25:18;;;;;;;73.85;40.08;;;3.80;99.90;;;;;;5054637;28;20021;-70
2021/04/20 03:27:50;;;;;;;86.32;41.17;;;3.70;99.90;;;;;;5054060;28;20025;-70
2021/04/20 03:30:18;;;;;;;85.20;40.30;;;3.80;99.90;;;;;;5054538;28;20618;-70
2021/04/20 03:33:06;;;;;;;79.97;38.80;;;3.70;99.90;;;;;;5054237;28;20037;-70
2021/04/20 03:36:01;;;;;;;69.45;39.42;;;3.50;99.90;;;;;;5054551;28;20106;-70
2021/04/20 03:38:47;;;;;;;307.75;46.75;;;3.40;99.90;;;;;;5054235;28;20025;-70
2021/04/20 03:41:19;;;;;;;59.45;35.30;;;3.40;99.90;;;;;;5054547;28;20043;-70
2021/04/20 03:43:48;;;;;;;231.63;40.40;;;3.50;99.90;;;;;;5054029;28;20035;-69
2021/04/20 03:46:21;;;;;;;157.52;41.88;;;3.50;99.90;;;;;;5055012;28;20090;-69
2021/04/20 03:48:56;;;;;;;168.63;37.28;;;3.50;99.90;;;;;;5056486;28;20048;-70
2021/04/20 03:51:27;;;;;;;138.40;39.03;;;3.10;99.90;;;;;;5055007;28;20474;-70
2021/04/20 03:53:56;;;;;;;107.97;38.83;;;2.90;99.90;;;;;;5054088;28;20124;-70
2021/04/20 03:56:26;;;;;;;79.82;39.63;;;3.00;99.90;;;;;;5052896;28;20429;-69
2021/04/20 03:58:55;;;;;;;143.70;40.28;;;3.00;99.90;;;;;;5053476;28;20912;-70
2021/04/20 04:01:21;;;;;;;69.10;36.22;;;3.00;99.90;;;;;;5053714;28;20025;-70
2021/04/20 04:03:49;;;;;;;75.70;37.85;;;3.10;99.90;;;;;;5053794;28;20490;-70
2021/04/20 04:06:19;;;;;;;80.57;39.03;;;3.10;99.90;;;;;;5054132;28;20052;-70
2021/04/20 04:08:48;;;;;;;72.13;38.40;;;3.30;99.90;;;;;;5053999;28;20017;-70
2021/04/20 04:11:15;;;;;;;80.10;40.00;;;3.20;99.90;;;;;;5054057;28;20071;-70
2021/04/20 04:13:42;;;;;;;98.10;38.50;;;3.10;99.90;;;;;;5053428;28;20033;-69
2021/04/20 04:16:11;;;;;;;99.57;36.05;;;3.10;99.90;;;;;;5053856;28;20546;-70
2021/04/20 04:18:41;;;;;;;91.13;33.72;;;3.00;99.90;;;;;;5053817;28;20060;-69
2021/04/20 04:21:09;;;;;;;54.10;33.85;;;2.90;99.90;;;;;;5054281;28;20383;-69
2021/04/20 04:23:45;;;;;;;55.15;31.33;;;2.70;99.90;;;;;;5052960;28;20180;-71
2021/04/20 04:26:16;;;;;;;111.60;30.90;;;2.50;99.90;;;;;;5046121;28;20029;-70
2021/04/20 04:28:46;;;;;;;56.38;32.45;;;2.40;99.90;;;;;;5052137;28;20043;-69
2021/04/20 04:31:14;;;;;;;83.55;31.42;;;2.40;99.90;;;;;;5049980;28;20036;-69
2021/04/20 04:33:41;;;;;;;63.22;33.28;;;2.60;99.90;;;;;;5052398;28;20036;-69
2021/04/20 04:36:09;;;;;;;55.50;32.45;;;2.70;99.90;;;;;;5052462;28;20039;-69
2021/04/20 04:38:39;;;;;;;59.45;33.35;;;2.70;99.90;;;;;;5051627;28;20021;-69
2021/04/20 04:41:05;;;;;;;77.38;34.85;;;2.70;99.90;;;;;;5053431;28;20497;-70
2021/04/20 04:43:31;;;;;;;76.30;34.33;;;2.70;99.90;;;;;;5052376;28;20024;-70
2021/04/20 04:45:57;;;;;;;54.15;32.08;;;2.80;99.90;;;;;;5052510;28;20383;-69
2021/04/20 04:48:27;;;;;;;113.75;33.08;;;2.90;99.90;;;;;;5052296;28;20428;-69
2021/04/20 04:50:54;;;;;;;66.55;32.22;;;2.90;99.90;;;;;;5051221;28;20111;-70
2021/04/20 04:53:21;;;;;;;50.15;31.08;;;2.90;99.90;;;;;;5051023;28;20037;-70
2021/04/20 04:55:47;;;;;;;60.33;33.20;;;3.00;99.90;;;;;;5051954;28;20380;-71
2021/04/20 04:58:15;;;;;;;68.28;33.50;;;3.20;99.90;;;;;;5050776;28;20099;-70
2021/04/20 05:00:42;;;;;;;70.88;34.53;;;4.30;99.90;;;;;;5050888;28;20028;-70
2021/04/20 05:03:08;;;;;;;79.35;32.20;;;4.30;99.90;;;;;;5050475;28;20128;-70
2021/04/20 05:05:38;;;;;;;68.32;25.50;;;4.30;99.90;;;;;;5051096;28;20442;-70
2021/04/20 05:08:05;;;;;;;51.00;23.92;;;4.00;99.90;;;;;;5048497;28;20506;-70
2021/04/20 05:10:31;;;;;;;75.32;23.17;;;3.40;99.90;;;;;;5030990;28;20104;-70
2021/04/20 05:12:57;;;;;;;42.95;23.60;;;3.10;99.90;;;;;;5029647;28;20132;-69
2021/04/20 05:15:23;;;;;;;67.55;23.83;;;3.00;99.90;;;;;;5030860;28;20029;-70
2021/04/20 05:17:50;;;;;;;36.55;23.75;;;2.80;99.90;;;;;;5031403;28;20049;-70
2021/04/20 05:20:18;;;;;;;96.50;25.92;;;2.70;99.90;;;;;;5039363;28;20507;-70
2021/04/20 05:22:48;;;;;;;40.88;24.83;;;2.90;99.90;;;;;;5051035;28;20032;-70
2021/04/20 05:25:16;;;;;;;68.50;24.40;;;3.10;99.90;;;;;;5050481;28;20114;-69
2021/04/20 05:27:43;;;;;;;55.97;24.40;;;2.90;99.90;;;;;;5050819;28;20075;-69
2021/04/20 05:30:10;;;;;;;42.28;21.75;;;2.90;99.90;;;;;;5037587;28;20434;-70
2021/04/20 05:32:38;;;;;;;69.80;24.05;;;2.70;99.90;;;;;;5030909;28;20029;-69
2021/04/20 05:35:05;;;;;;;40.33;23.85;;;2.60;99.90;;;;;;5031054;28;20499;-69
2021/04/20 05:37:36;;;;;;;75.25;25.80;;;2.60;99.90;;;;;;5029871;28;20407;-70
2021/04/20 05:40:08;;;;;;;70.25;25.90;;;2.70;99.90;;;;;;5041645;28;20041;-70
2021/04/20 05:42:34;;;;;;;41.20;26.60;;;2.70;99.90;;;;;;5046604;28;20018;-70
2021/04/20 05:45:01;;;;;;;71.63;25.17;;;2.70;99.90;;;;;;5032024;28;20168;-69
2021/04/20 05:47:26;;;;;;;47.58;27.20;;;2.80;99.90;;;;;;5032575;28;20634;-70
2021/04/20 05:49:58;;;;;;;51.85;28.40;;;2.90;99.90;;;;;;5032155;28;20017;-70
2021/04/20 05:52:24;;;;;;;51.92;26.08;;;3.10;99.90;;;;;;5054887;28;20374;-70
2021/04/20 05:54:55;;;;;;;43.85;25.83;;;3.20;99.90;;;;;;5059139;28;20029;-70
2021/04/20 05:57:21;;;;;;;65.25;26.67;;;3.30;99.90;;;;;;5056489;28;20044;-70
2021/04/20 05:59:47;;;;;;;41.80;24.40;;;3.40;99.90;;;;;;5062697;28;20052;-73
2021/04/20 06:02:15;;;;;;;49.38;22.33;;;3.40;99.90;;;;;;5060618;28;20032;-70
2021/04/20 06:04:45;;;;;;;43.50;20.95;;;3.10;99.90;;;;;;5050844;28;20040;-70
2021/04/20 06:07:13;;;;;;;39.47;22.45;;;3.00;99.90;;;;;;5051884;28;20021;-71
2021/04/20 06:09:39;;;;;;;56.22;24.02;;;3.00;99.90;;;;;;5055079;28;20025;-70
2021/04/20 06:12:05;;;;;;;33.25;21.75;;;3.30;99.90;;;;;;5064160;28;20029;-71
2021/04/20 06:14:31;;;;;;;41.42;21.85;;;3.20;99.90;;;;;;5055035;28;20037;-71
2021/04/20 06:16:57;;;;;;;39.17;22.10;;;3.40;99.90;;;;;;5053384;28;20561;-70
2021/04/20 06:19:23;;;;;;;34.70;19.42;;;3.50;99.90;;;;;;5032477;28;20329;-70
2021/04/20 06:21:49;;;;;;;35.88;20.42;;;3.30;99.90;;;;;;5055097;28;20040;-71
2021/04/20 06:24:16;;;;;;;37.05;20.15;;;3.30;99.90;;;;;;5047992;28;20025;-72
2021/04/20 06:26:43;;;;;;;33.10;22.52;;;3.00;99.90;;;;;;5055118;28;20044;-73
2021/04/20 06:29:08;;;;;;;35.63;19.02;;;3.80;99.90;;;;;;5049659;28;20014;-70
2021/04/20 06:31:34;;;;;;;28.83;20.40;;;3.60;99.90;;;;;;5034840;28;20399;-70
2021/04/20 06:34:01;;;;;;;30.58;19.73;;;3.50;99.90;;;;;;5034527;28;20026;-71
2021/04/20 06:36:28;;;;;;;32.97;18.48;;;3.70;99.90;;;;;;5035936;28;20108;-70
2021/04/20 06:38:54;;;;;;;28.80;19.92;;;3.50;99.90;;;;;;5050206;28;20029;-70
2021/04/20 06:41:26;;;;;;;29.02;19.08;;;3.80;99.90;;;;;;5054607;28;20032;-70
2021/04/20 06:44:19;;;;;;;30.00;19.88;;;3.90;99.90;;;;;;5052089;28;20392;-70
2021/04/20 06:46:50;;;;;;;;;;;3.70;99.90;;;;;;5052645;28;20442;-72
2021/04/20 06:49:20;;;;;;;30.85;18.00;;;3.60;99.90;;;;;;5051808;28;20377;-71
2021/04/20 06:51:49;;;;;;;29.67;18.65;;;3.60;99.90;;;;;;5051403;28;20043;-70
2021/04/20 06:54:23;;;;;;;31.10;18.55;;;3.60;99.90;;;;;;5050606;28;20021;-71
2021/04/20 06:56:54;;;;;;;30.88;18.88;;;4.00;99.90;;;;;;5051060;28;20025;-72
2021/04/20 06:59:43;;;;;;;27.67;19.05;;;4.00;99.90;;;;;;5050060;28;20403;-72
2021/04/20 07:02:28;;;;;;;29.20;19.35;;;4.00;99.90;;;;;;5048501;28;20033;-71
2021/04/20 07:04:59;;;;;;;29.05;18.40;;;4.10;99.90;;;;;;5051934;28;20424;-72
2021/04/20 07:08:02;;;;;;;44.08;19.02;;;4.00;99.90;;;;;;5050730;28;20025;-71
2021/04/20 07:10:32;;;;;;;35.42;18.55;;;3.70;99.90;;;;;;5047392;28;20029;-71
2021/04/20 07:13:00;;;;;;;61.60;20.25;;;3.80;99.90;;;;;;5055842;28;20044;-70
2021/04/20 07:15:28;;;;;;;31.52;20.95;;;3.70;99.90;;;;;;5060764;28;20462;-71
2021/04/20 07:17:57;;;;;;;28.42;18.77;;;3.80;99.90;;;;;;5061077;28;20029;-71
2021/04/20 07:20:41;;;;;;;32.63;20.23;;;4.10;99.90;;;;;;5056590;28;20024;-70
2021/04/20 07:23:25;;;;;;;32.45;18.17;;;4.40;99.90;;;;;;5051241;28;20475;-70
2021/04/20 07:25:56;;;;;;;27.33;18.40;;;4.30;99.90;;;;;;5051657;28;20021;-70
2021/04/20 07:28:56;;;;;;;26.10;19.48;;;4.20;99.90;;;;;;5049895;28;20032;-70
2021/04/20 07:31:36;;;;;;;29.42;17.52;;;4.50;99.90;;;;;;5048931;28;20029;-70
2021/04/20 07:34:34;;;;;;;23.92;17.15;;;4.90;99.90;;;;;;5051113;28;20147;-71
2021/04/20 07:37:21;;;;;;;23.33;16.20;;;5.20;99.90;;;;;;5055593;28;20021;-69
2021/04/20 07:40:05;;;;;;;25.15;15.07;;;5.20;99.90;;;;;;5054051;28;20494;-70
2021/04/20 07:42:43;;;;;;;23.65;16.77;;;5.20;99.90;;;;;;5054879;28;20163;-70
2021/04/20 07:45:33;;;;;;;20.92;15.70;;;5.00;99.90;;;;;;5055956;28;20072;-70
2021/04/20 07:48:30;;;;;;;27.95;17.90;;;5.10;99.90;;;;;;5055448;28;20434;-71
2021/04/20 07:51:03;;;;;;;20.92;15.82;;;5.30;99.90;;;;;;5054606;28;20520;-70
2021/04/20 07:54:03;;;;;;;20.38;15.57;;;5.30;99.90;;;;;;5054426;28;20029;-71
2021/04/20 07:56:36;;;;;;;22.73;16.48;;;5.40;99.90;;;;;;5055106;28;20029;-70
2021/04/20 07:59:09;;;;;;;27.05;17.17;;;5.50;99.90;;;;;;5054443;28;20037;-70
2021/04/20 08:02:00;;;;;;;24.60;16.55;;;5.40;99.90;;;;;;5046906;28;20087;-70
2021/04/20 08:05:11;;;;;;;23.30;15.65;;;5.60;99.90;;;;;;5034255;28;20053;-70
2021/04/20 08:07:39;;;;;;;21.27;16.42;;;6.00;99.90;;;;;;5032793;28;20045;-70
2021/04/20 08:10:09;;;;;;;20.48;15.05;;;6.00;99.90;;;;;;5034128;28;20064;-71
2021/04/20 08:12:44;;;;;;;19.63;15.07;;;6.60;99.90;;;;;;5034502;28;20026;-71
2021/04/20 08:15:18;;;;;;;19.58;14.85;;;6.90;99.90;;;;;;5034895;28;20021;-70
2021/04/20 08:18:00;;;;;;;19.15;13.90;;;7.30;99.90;;;;;;5034068;28;20053;-70
2021/04/20 08:20:28;;;;;;;20.70;14.05;;;7.30;99.90;;;;;;5035028;28;20022;-71
2021/04/20 08:22:55;;;;;;;16.58;13.63;;;7.10;99.90;;;;;;5034304;28;20028;-71
2021/04/20 08:25:50;;;;;;;18.23;14.23;;;6.70;99.90;;;;;;5035712;28;20029;-71
2021/04/20 08:28:42;;;;;;;17.77;13.98;;;6.90;99.90;;;;;;5036135;28;20025;-71
2021/04/20 08:31:24;;;;;;;17.02;13.25;;;7.40;99.90;;;;;;5039892;28;20045;-69
2021/04/20 08:33:57;;;;;;;16.27;14.17;;;7.90;99.90;;;;;;5053923;28;20036;-70
2021/04/20 08:36:38;;;;;;;15.80;13.75;;;8.70;99.90;;;;;;5055065;28;20385;-71
2021/04/20 08:39:18;;;;;;;18.15;14.63;;;9.80;99.90;;;;;;5058475;28;20513;-72
2021/04/20 08:41:50;;;;;;;18.98;14.70;;;9.70;99.90;;;;;;5055591;28;20431;-70
2021/04/20 08:44:32;;;;;;;16.58;14.07;;;9.00;99.90;;;;;;5057046;28;20025;-71
2021/04/20 08:47:16;;;;;;;18.13;14.63;;;9.30;99.90;;;;;;5055645;28;20028;-71
2021/04/20 08:50:00;;;;;;;18.55;15.60;;;9.60;99.90;;;;;;5054560;28;20029;-71
2021/04/20 08:52:46;;;;;;;17.80;15.50;;;9.10;99.90;;;;;;5055423;28;20095;-71
2021/04/20 08:55:27;;;;;;;18.30;14.38;;;9.50;99.90;;;;;;5054316;28;20024;-72
2021/04/20 08:58:28;;;;;;;18.63;15.85;;;9.60;99.90;;;;;;5054301;28;20086;-71
2021/04/20 09:01:12;;;;;;;19.15;15.38;;;9.60;99.90;;;;;;5043949;28;20059;-71
2021/04/20 09:04:30;;;;;;;18.05;15.18;;;10.20;99.90;;;;;;5050674;28;20108;-71
2021/04/20 09:07:03;;;;;;;16.95;15.15;;;10.80;99.90;;;;;;5012844;28;20530;-71
2021/04/20 09:09:31;;;;;;;16.65;14.63;;;12.10;99.90;;;;;;5053103;28;20035;-70
2021/04/20 09:12:01;;;;;;;18.15;15.20;;;13.20;99.90;;;;;;5052592;28;20096;-73
2021/04/20 09:14:39;;;;;;;17.75;15.98;;;13.20;99.90;;;;;;5052117;28;20052;-70
2021/04/20 09:17:17;;;;;;;17.02;15.23;;;13.70;99.90;;;;;;5052568;28;20498;-70
2021/04/20 09:19:56;;;;;;;14.52;13.02;;;12.70;99.90;;;;;;5052453;28;20040;-71
2021/04/20 09:22:37;;;;;;;14.05;12.38;;;12.40;99.90;;;;;;5051304;28;20036;-72
2021/04/20 09:25:10;;;;;;;16.05;14.40;;;14.20;99.90;;;;;;5051700;28;20040;-69
2021/04/20 09:28:03;;;;;;;15.27;13.77;;;15.30;99.90;;;;;;5052533;28;20104;-70
2021/04/20 09:30:40;;;;;;;14.73;13.23;;;15.30;99.90;;;;;;5052758;28;20021;-69
2021/04/20 09:33:11;;;;;;;13.73;11.98;;;16.00;99.90;;;;;;5050755;28;20509;-70
2021/04/20 09:35:38;;;;;;;13.77;12.30;;;15.70;99.90;;;;;;5052403;28;20044;-71
2021/04/20 09:38:09;;;;;;;13.57;12.18;;;16.40;99.90;;;;;;5051037;28;20033;-70
2021/04/20 09:40:36;;;;;;;14.07;12.57;;;17.10;99.90;;;;;;5052541;28;20029;-71
2021/04/20 09:43:31;;;;;;;13.13;11.38;;;17.60;98.70;;;;;;5052709;28;20051;-70
2021/04/20 09:46:17;;;;;;;13.05;11.77;;;17.70;97.70;;;;;;5053863;28;20045;-71
2021/04/20 09:49:10;;;;;;;12.20;11.00;;;18.60;95.10;;;;;;5055021;28;20024;-71
2021/04/20 09:51:46;;;;;;;13.45;12.20;;;18.40;98.30;;;;;;5054245;28;20057;-71
2021/04/20 09:54:31;;;;;;;12.50;11.30;;;19.70;93.50;;;;;;5053900;28;20048;-72
2021/04/20 09:57:01;;;;;;;11.60;10.40;;;19.60;90.50;;;;;;5042061;28;20107;-70
2021/04/20 09:59:44;;;;;;;10.15;9.25;;;19.70;91.00;;;;;;5048252;28;20479;-71
2021/04/20 10:02:29;;;;;;;9.57;8.32;;;19.60;87.90;;;;;;5050388;28;20063;-71
2021/04/20 10:05:07;;;;;;;9.32;7.93;;;19.20;85.90;;;;;;5051331;28;20017;-69
2021/04/20 10:07:51;;;;;;;6.82;6.22;;;19.90;87.90;;;;;;5032721;28;20113;-71
2021/04/20 10:10:28;;;;;;;6.85;6.25;;;20.50;81.90;;;;;;5030805;28;20080;-70
2021/04/20 10:13:03;;;;;;;5.55;5.05;;;19.10;76.80;;;;;;5030214;28;20017;-72
2021/04/20 10:16:07;;;;;;;6.85;6.18;;;18.40;87.50;;;;;;5032013;28;20021;-69
2021/04/20 10:18:44;;;;;;;6.50;5.63;;;19.70;80.70;;;;;;5017483;28;20057;-70
2021/04/20 10:21:16;;;;;;;7.10;6.50;;;21.00;73.00;;;;;;5033936;28;20025;-70
2021/04/20 10:24:02;;;;;;;6.93;6.32;;;21.40;73.50;;;;;;5030920;28;20427;-70
2021/04/20 10:26:46;;;;;;;7.53;6.82;;;21.70;72.80;;;;;;5031882;28;20026;-70
2021/04/20 10:29:14;;;;;;;7.18;6.55;;;21.70;68.00;;;;;;5031952;28;20029;-70
2021/04/20 10:32:19;;;;;;;6.60;6.00;;;20.40;69.30;;;;;;5038763;28;20024;-71
2021/04/20 10:34:49;;;;;;;7.28;6.22;;;20.90;71.70;;;;;;5033508;28;20068;-70
2021/04/20 10:37:17;;;;;;;6.07;5.47;;;21.00;71.90;;;;;;5051977;28;20025;-70
2021/04/20 10:39:50;;;;;;;6.68;6.07;;;21.40;70.60;;;;;;5050261;28;20070;-70
2021/04/20 10:42:16;;;;;;;6.93;5.82;;;22.60;69.60;;;;;;5051401;28;20029;-70
2021/04/20 10:44:47;;;;;;;6.05;5.45;;;22.40;64.90;;;;;;5050145;28;20021;-71
2021/04/20 10:47:18;;;;;;;6.00;5.50;;;22.80;65.70;;;;;;5051258;28;20017;-70
2021/04/20 10:49:58;;;;;;;5.67;5.17;;;22.50;62.70;;;;;;5051243;28;20112;-70
2021/04/20 10:52:30;;;;;;;6.40;5.90;;;22.80;62.10;;;;;;5051922;28;20268;-69
2021/04/20 10:55:00;;;;;;;6.25;5.72;;;22.30;62.10;;;;;;5050533;28;20021;-69
2021/04/20 10:57:29;;;;;;;5.90;5.40;;;22.40;59.70;;;;;;5051496;28;20726;-70
2021/04/20 10:59:56;;;;;;;6.78;5.72;;;21.90;61.30;;;;;;5051747;28;20037;-71
2021/04/20 11:02:26;;;;;;;6.32;5.80;;;22.50;64.40;;;;;;5041196;28;20029;-71
2021/04/20 11:04:53;;;;;;;6.43;5.82;;;22.30;60.70;;;;;;5050646;28;20112;-70
2021/04/20 11:07:19;;;;;;;6.18;5.57;;;22.10;58.50;;;;;;5051576;28;20025;-69
2021/04/20 11:09:59;;;;;;;7.07;6.25;;;21.30;61.40;;;;;;5051244;28;20029;-70
2021/04/20 11:12:26;;;;;;;5.72;4.90;;;21.30;59.60;;;;;;5055643;28;20078;-70
2021/04/20 11:14:53;;;;;;;6.45;5.82;;;21.20;63.60;;;;;;5054243;28;20051;-70
2021/04/20 11:17:45;;;;;;;7.32;6.10;;;21.50;63.10;;;;;;5055002;28;20399;-71
2021/04/20 11:20:24;;;;;;;7.43;6.10;;;22.00;60.30;;;;;;5054758;28;20028;-70
2021/04/20 11:22:53;;;;;;;7.03;6.43;;;22.40;59.40;;;;;;5054601;28;20437;-69
2021/04/20 11:25:32;;;;;;;6.43;5.90;;;23.30;57.80;;;;;;5054976;28;20032;-72
2021/04/20 11:28:01;;;;;;;6.63;6.03;;;24.50;54.30;;;;;;5057428;28;20056;-71
2021/04/20 11:30:31;;;;;;;6.70;5.45;;;24.20;54.00;;;;;;5057581;28;20017;-71
2021/04/20 11:33:00;;;;;;;6.32;5.82;;;23.60;54.70;;;;;;5053603;28;20108;-71
2021/04/20 11:35:27;;;;;;;6.20;5.47;;;22.90;54.40;;;;;;5055626;28;20028;-71
2021/04/20 11:37:59;;;;;;;5.50;4.95;;;22.50;57.10;;;;;;5057944;28;20067;-70
2021/04/20 11:40:31;;;;;;;5.25;4.85;;;23.90;57.20;;;;;;5057108;28;20036;-70
2021/04/20 11:43:01;;;;;;;8.65;5.60;;;23.60;56.00;;;;;;5054126;28;20061;-72
2021/04/20 11:45:29;;;;;;;5.80;5.30;;;22.30;55.90;;;;;;5054625;28;20028;-71
2021/04/20 11:47:56;;;;;;;7.85;7.05;;;21.60;58.40;;;;;;5054620;28;20029;-70
2021/04/20 11:50:23;;;;;;;7.50;6.90;;;20.30;59.60;;;;;;5053023;28;20112;-70
2021/04/20 11:53:04;;;;;;;7.88;7.00;;;19.40;64.10;;;;;;5054376;28;20024;-70
2021/04/20 11:55:34;;;;;;;8.15;6.80;;;19.90;62.30;;;;;;5053572;28;20029;-71
2021/04/20 11:58:04;;;;;;;7.90;7.20;;;20.60;62.70;;;;;;5054503;28;20108;-70
2021/04/20 12:00:33;;;;;;;7.43;6.82;;;21.60;62.20;;;;;;5052370;28;20090;-70
2021/04/20 12:03:08;;;;;;;6.68;6.07;;;21.00;60.50;;;;;;5045159;28;20025;-71
2021/04/20 12:05:34;;;;;;;7.35;6.65;;;21.00;64.30;;;;;;5053759;28;20065;-69
2021/04/20 12:08:01;;;;;;;7.75;7.03;;;21.00;63.40;;;;;;5052941;28;20474;-69
2021/04/20 12:10:27;;;;;;;7.90;6.15;;;20.20;64.60;;;;;;5054110;28;20033;-68
2021/04/20 12:12:54;;;;;;;10.05;7.25;;;20.20;67.80;;;;;;5054886;28;20099;-69
2021/04/20 12:15:20;;;;;;;8.30;7.50;;;20.30;62.60;;;;;;5053072;28;20379;-68
2021/04/20 12:17:47;;;;;;;8.68;7.88;;;20.40;61.60;;;;;;5054340;28;20444;-69
2021/04/20 12:20:21;;;;;;;7.40;6.70;;;20.80;63.80;;;;;;5054511;28;20047;-70
2021/04/20 12:22:55;;;;;;;8.25;6.03;;;21.50;59.10;;;;;;5054034;28;20125;-70
2021/04/20 12:25:22;;;;;;;9.13;6.70;;;22.50;58.70;;;;;;5054597;28;20083;-70
2021/04/20 12:27:56;;;;;;;7.25;6.60;;;24.40;57.20;;;;;;5055477;28;20025;-68
2021/04/20 12:30:23;;;;;;;6.90;6.20;;;25.40;54.00;;;;;;5054665;28;20086;-69
2021/04/20 12:32:49;;;;;;;6.90;6.28;;;25.60;51.90;;;;;;5052778;28;20029;-68
2021/04/20 12:35:24;;;;;;;6.18;5.68;;;26.00;53.10;;;;;;5052790;28;20083;-69
2021/04/20 12:37:54;;;;;;;7.38;6.70;;;27.50;51.60;;;;;;5053565;28;20027;-70
2021/04/20 12:40:22;;;;;;;8.02;7.20;;;28.50;49.30;;;;;;5053562;28;20070;-69
2021/04/20 12:42:54;;;;;;;8.18;6.90;;;25.60;47.90;;;;;;5052868;28;20107;-70
2021/04/20 12:45:24;;;;;;;5.90;5.40;;;23.60;51.70;;;;;;5053318;28;20029;-71
2021/04/20 12:47:54;;;;;;;7.20;5.50;;;23.90;54.70;;;;;;5053252;28;20032;-69
2021/04/20 12:50:29;;;;;;;8.18;6.68;;;25.20;52.90;;;;;;5053733;28;20383;-69
2021/04/20 12:53:01;;;;;;;6.22;5.65;;;26.40;49.30;;;;;;5052849;28;20074;-69
2021/04/20 12:55:29;;;;;;;7.57;6.88;;;24.40;51.50;;;;;;5046123;28;20021;-70
2021/04/20 12:57:58;;;;;;;7.47;6.88;;;22.80;53.30;;;;;;5059648;28;20048;-73
2021/04/20 13:00:29;;;;;;;7.32;6.63;;;21.80;55.50;;;;;;5052256;28;20480;-73
2021/04/20 13:02:58;;;;;;;6.22;5.63;;;21.60;57.40;;;;;;5051623;28;21402;-72